sensor_id;sensor_type;location;lat;lon;timestamp;temperature;humidity
36442;DHT22;73131;50.820;16.274;2024-03-02T00:02:23;10.20;99.90
36442;DHT22;73131;50.820;16.274;2024-03-02T00:05:28;10.30;99.90
36442;DHT22;73131;50.820;16.274;2024-03-02T00:08:29;10.80;99.90
36442;DHT22;73131;50.820;16.274;2024-03-02T00:11:32;10.20;99.90
36442;DHT22;73131;50.820;16.274;2024-03-02T00:14:35;10.20;99.90
36442;DHT22;73131;50.820;16.274;2024-03-02T00:17:40;10.20;99.90
36442;DHT22;73131;50.820;16.274;2024-03-02T00:20:42;10.20;99.90
36442;DHT22;73131;50.820;16.274;2024-03-02T00:23:43;10.20;99.90
36442;DHT22;73131;50.820;16.274;2024-03-02T00:26:47;10.20;99.90
36442;DHT22;73131;50.820;16.274;2024-03-02T00:29:48;10.20;99.90
36442;DHT22;73131;50.820;16.274;2024-03-02T00:32:49;10.20;99.90
36442;DHT22;73131;50.820;16.274;2024-03-02T00:35:53;10.20;99.90
36442;DHT22;73131;50.820;16.274;2024-03-02T00:38:55;10.20;99.90
36442;DHT22;73131;50.820;16.274;2024-03-02T00:41:56;10.20;99.90
36442;DHT22;73131;50.820;16.274;2024-03-02T00:44:57;10.20;99.90
36442;DHT22;73131;50.820;16.274;2024-03-02T00:47:58;10.20;99.90
36442;DHT22;73131;50.820;16.274;2024-03-02T00:50:59;10.20;99.90
36442;DHT22;73131;50.820;16.274;2024-03-02T00:54:04;10.20;99.90
36442;DHT22;73131;50.820;16.274;2024-03-02T00:57:05;10.20;99.90
36442;DHT22;73131;50.820;16.274;2024-03-02T01:00:06;10.20;99.90
36442;DHT22;73131;50.820;16.274;2024-03-02T01:03:13;10.20;99.90
36442;DHT22;73131;50.820;16.274;2024-03-02T01:06:16;10.20;99.90
36442;DHT22;73131;50.820;16.274;2024-03-02T01:09:17;10.20;99.90
36442;DHT22;73131;50.820;16.274;2024-03-02T01:12:21;10.20;99.90
36442;DHT22;73131;50.820;16.274;2024-03-02T01:15:24;10.20;99.90
36442;DHT22;73131;50.820;16.274;2024-03-02T01:18:26;10.20;99.90
36442;DHT22;73131;50.820;16.274;2024-03-02T01:21:29;10.30;99.90
36442;DHT22;73131;50.820;16.274;2024-03-02T01:24:30;10.30;99.90
36442;DHT22;73131;50.820;16.274;2024-03-02T01:27:33;10.30;99.90
36442;DHT22;73131;50.820;16.274;2024-03-02T01:30:34;10.30;99.90
36442;DHT22;73131;50.820;16.274;2024-03-02T01:33:35;10.40;99.90
36442;DHT22;73131;50.820;16.274;2024-03-02T01:36:39;10.30;99.90
36442;DHT22;73131;50.820;16.274;2024-03-02T01:39:40;10.40;99.90
36442;DHT22;73131;50.820;16.274;2024-03-02T01:42:41;10.40;99.90
36442;DHT22;73131;50.820;16.274;2024-03-02T01:45:42;10.40;99.90
36442;DHT22;73131;50.820;16.274;2024-03-02T01:48:45;10.40;99.90
36442;DHT22;73131;50.820;16.274;2024-03-02T01:51:46;10.40;99.90
36442;DHT22;73131;50.820;16.274;2024-03-02T01:54:50;10.40;99.90
36442;DHT22;73131;50.820;16.274;2024-03-02T01:57:55;10.40;99.90
36442;DHT22;73131;50.820;16.274;2024-03-02T02:00:56;10.40;99.90
36442;DHT22;73131;50.820;16.274;2024-03-02T02:03:57;10.40;99.90
36442;DHT22;73131;50.820;16.274;2024-03-02T02:06:59;10.40;99.90
36442;DHT22;73131;50.820;16.274;2024-03-02T02:10:00;10.40;99.90
36442;DHT22;73131;50.820;16.274;2024-03-02T02:13:06;10.40;99.90
36442;DHT22;73131;50.820;16.274;2024-03-02T02:16:09;10.40;99.90
36442;DHT22;73131;50.820;16.274;2024-03-02T02:19:10;10.50;99.90
36442;DHT22;73131;50.820;16.274;2024-03-02T02:22:13;10.50;99.90
36442;DHT22;73131;50.820;16.274;2024-03-02T02:25:17;10.50;99.90
36442;DHT22;73131;50.820;16.274;2024-03-02T02:28:20;10.50;99.90
36442;DHT22;73131;50.820;16.274;2024-03-02T02:31:26;10.50;99.90
36442;DHT22;73131;50.820;16.274;2024-03-02T02:34:27;10.50;99.90
36442;DHT22;73131;50.820;16.274;2024-03-02T02:37:31;10.50;99.90
36442;DHT22;73131;50.820;16.274;2024-03-02T02:40:32;10.40;99.90
36442;DHT22;73131;50.820;16.274;2024-03-02T02:43:36;10.30;99.90
36442;DHT22;73131;50.820;16.274;2024-03-02T02:46:37;10.20;99.90
36442;DHT22;73131;50.820;16.274;2024-03-02T02:49:40;10.20;99.90
36442;DHT22;73131;50.820;16.274;2024-03-02T02:52:43;10.10;99.90
36442;DHT22;73131;50.820;16.274;2024-03-02T02:55:45;10.10;99.90
36442;DHT22;73131;50.820;16.274;2024-03-02T02:58:45;10.00;99.90
36442;DHT22;73131;50.820;16.274;2024-03-02T03:01:47;10.00;99.90
36442;DHT22;73131;50.820;16.274;2024-03-02T03:04:48;10.00;99.90
36442;DHT22;73131;50.820;16.274;2024-03-02T03:07:49;9.90;99.90
36442;DHT22;73131;50.820;16.274;2024-03-02T03:10:50;9.90;99.90
36442;DHT22;73131;50.820;16.274;2024-03-02T03:13:52;9.90;99.90
36442;DHT22;73131;50.820;16.274;2024-03-02T03:16:55;9.90;99.90
36442;DHT22;73131;50.820;16.274;2024-03-02T03:19:58;9.90;99.90
36442;DHT22;73131;50.820;16.274;2024-03-02T03:23:00;9.80;99.90
36442;DHT22;73131;50.820;16.274;2024-03-02T03:26:01;9.90;99.90
36442;DHT22;73131;50.820;16.274;2024-03-02T03:29:02;9.90;99.90
36442;DHT22;73131;50.820;16.274;2024-03-02T03:32:05;9.80;99.90
36442;DHT22;73131;50.820;16.274;2024-03-02T03:35:07;9.80;99.90
36442;DHT22;73131;50.820;16.274;2024-03-02T03:38:13;9.80;99.90
36442;DHT22;73131;50.820;16.274;2024-03-02T03:41:16;9.90;99.90
36442;DHT22;73131;50.820;16.274;2024-03-02T03:44:17;9.90;99.90
36442;DHT22;73131;50.820;16.274;2024-03-02T03:47:20;9.70;99.90
36442;DHT22;73131;50.820;16.274;2024-03-02T03:50:26;9.90;99.90
36442;DHT22;73131;50.820;16.274;2024-03-02T03:53:27;10.00;99.90
36442;DHT22;73131;50.820;16.274;2024-03-02T03:56:28;10.00;99.90
36442;DHT22;73131;50.820;16.274;2024-03-02T03:59:29;10.00;99.90
36442;DHT22;73131;50.820;16.274;2024-03-02T04:02:33;10.10;99.90
36442;DHT22;73131;50.820;16.274;2024-03-02T04:05:33;10.00;99.90
36442;DHT22;73131;50.820;16.274;2024-03-02T04:08:35;10.00;99.90
36442;DHT22;73131;50.820;16.274;2024-03-02T04:11:36;10.00;99.90
36442;DHT22;73131;50.820;16.274;2024-03-02T04:14:37;10.00;99.90
36442;DHT22;73131;50.820;16.274;2024-03-02T04:17:40;10.00;99.90
36442;DHT22;73131;50.820;16.274;2024-03-02T04:20:42;10.00;99.90
36442;DHT22;73131;50.820;16.274;2024-03-02T04:23:45;10.00;99.90
36442;DHT22;73131;50.820;16.274;2024-03-02T04:26:46;9.90;99.90
36442;DHT22;73131;50.820;16.274;2024-03-02T04:29:47;9.90;99.90
36442;DHT22;73131;50.820;16.274;2024-03-02T04:32:48;9.80;99.90
36442;DHT22;73131;50.820;16.274;2024-03-02T04:35:49;9.80;99.90
36442;DHT22;73131;50.820;16.274;2024-03-02T04:38:53;9.70;99.90
36442;DHT22;73131;50.820;16.274;2024-03-02T04:41:54;9.70;99.90
36442;DHT22;73131;50.820;16.274;2024-03-02T04:44:57;9.70;99.90
36442;DHT22;73131;50.820;16.274;2024-03-02T04:48:01;9.60;99.90
36442;DHT22;73131;50.820;16.274;2024-03-02T04:51:04;9.70;99.90
36442;DHT22;73131;50.820;16.274;2024-03-02T04:54:06;9.70;99.90
36442;DHT22;73131;50.820;16.274;2024-03-02T04:57:07;9.80;99.90
36442;DHT22;73131;50.820;16.274;2024-03-02T05:00:10;9.90;99.90
36442;DHT22;73131;50.820;16.274;2024-03-02T05:03:12;9.90;99.90
36442;DHT22;73131;50.820;16.274;2024-03-02T05:06:16;9.90;99.90
36442;DHT22;73131;50.820;16.274;2024-03-02T05:09:17;9.90;99.90
36442;DHT22;73131;50.820;16.274;2024-03-02T05:12:18;9.80;99.90
36442;DHT22;73131;50.820;16.274;2024-03-02T05:15:38;9.80;99.90
36442;DHT22;73131;50.820;16.274;2024-03-02T05:18:43;9.80;99.90
36442;DHT22;73131;50.820;16.274;2024-03-02T05:21:44;9.70;99.90
36442;DHT22;73131;50.820;16.274;2024-03-02T05:24:47;9.70;99.90
36442;DHT22;73131;50.820;16.274;2024-03-02T05:27:51;9.70;99.90
36442;DHT22;73131;50.820;16.274;2024-03-02T05:30:52;9.70;99.90
36442;DHT22;73131;50.820;16.274;2024-03-02T05:33:55;9.80;99.90
36442;DHT22;73131;50.820;16.274;2024-03-02T05:36:56;9.80;99.90
36442;DHT22;73131;50.820;16.274;2024-03-02T05:39:58;9.80;99.90
36442;DHT22;73131;50.820;16.274;2024-03-02T05:43:02;9.20;99.90
36442;DHT22;73131;50.820;16.274;2024-03-02T05:46:03;10.00;99.90
36442;DHT22;73131;50.820;16.274;2024-03-02T05:49:04;10.00;99.90
36442;DHT22;73131;50.820;16.274;2024-03-02T05:52:05;10.00;99.90
36442;DHT22;73131;50.820;16.274;2024-03-02T05:55:07;10.10;99.90
36442;DHT22;73131;50.820;16.274;2024-03-02T05:58:11;10.10;99.90
36442;DHT22;73131;50.820;16.274;2024-03-02T06:01:20;10.10;99.90
36442;DHT22;73131;50.820;16.274;2024-03-02T06:04:28;10.10;99.90
36442;DHT22;73131;50.820;16.274;2024-03-02T06:07:32;10.20;99.90
36442;DHT22;73131;50.820;16.274;2024-03-02T06:10:33;10.20;99.90
36442;DHT22;73131;50.820;16.274;2024-03-02T06:13:34;10.20;99.90
36442;DHT22;73131;50.820;16.274;2024-03-02T06:16:37;10.20;99.90
36442;DHT22;73131;50.820;16.274;2024-03-02T06:19:39;10.20;99.90
36442;DHT22;73131;50.820;16.274;2024-03-02T06:22:42;10.20;99.90
36442;DHT22;73131;50.820;16.274;2024-03-02T06:25:43;10.30;99.90
36442;DHT22;73131;50.820;16.274;2024-03-02T06:28:45;10.30;99.90
36442;DHT22;73131;50.820;16.274;2024-03-02T06:31:46;10.30;99.90
36442;DHT22;73131;50.820;16.274;2024-03-02T06:34:49;10.30;99.90
36442;DHT22;73131;50.820;16.274;2024-03-02T06:37:53;10.40;99.90
36442;DHT22;73131;50.820;16.274;2024-03-02T06:40:54;10.40;99.90
36442;DHT22;73131;50.820;16.274;2024-03-02T06:44:01;10.50;99.90
36442;DHT22;73131;50.820;16.274;2024-03-02T06:47:04;10.50;99.90
36442;DHT22;73131;50.820;16.274;2024-03-02T06:50:11;10.50;99.90
36442;DHT22;73131;50.820;16.274;2024-03-02T06:53:17;10.50;99.90
36442;DHT22;73131;50.820;16.274;2024-03-02T06:56:18;10.50;99.90
36442;DHT22;73131;50.820;16.274;2024-03-02T06:59:24;10.50;99.90
36442;DHT22;73131;50.820;16.274;2024-03-02T07:02:25;10.60;99.90
36442;DHT22;73131;50.820;16.274;2024-03-02T07:05:27;10.60;99.90
36442;DHT22;73131;50.820;16.274;2024-03-02T07:08:30;10.70;99.90
36442;DHT22;73131;50.820;16.274;2024-03-02T07:11:31;10.70;99.90
36442;DHT22;73131;50.820;16.274;2024-03-02T07:14:32;10.70;99.90
36442;DHT22;73131;50.820;16.274;2024-03-02T07:17:59;10.80;99.90
36442;DHT22;73131;50.820;16.274;2024-03-02T07:21:03;11.00;99.90
36442;DHT22;73131;50.820;16.274;2024-03-02T07:24:07;11.20;99.90
36442;DHT22;73131;50.820;16.274;2024-03-02T07:27:10;11.30;99.90
36442;DHT22;73131;50.820;16.274;2024-03-02T07:30:14;11.30;99.90
36442;DHT22;73131;50.820;16.274;2024-03-02T07:33:17;11.40;99.90
36442;DHT22;73131;50.820;16.274;2024-03-02T07:36:18;11.50;99.90
36442;DHT22;73131;50.820;16.274;2024-03-02T07:39:23;11.50;99.90
36442;DHT22;73131;50.820;16.274;2024-03-02T07:42:24;11.60;99.90
36442;DHT22;73131;50.820;16.274;2024-03-02T07:45:28;11.80;99.90
36442;DHT22;73131;50.820;16.274;2024-03-02T07:48:29;11.90;99.90
36442;DHT22;73131;50.820;16.274;2024-03-02T07:51:31;12.20;99.90
36442;DHT22;73131;50.820;16.274;2024-03-02T07:54:32;12.70;99.90
36442;DHT22;73131;50.820;16.274;2024-03-02T07:57:37;13.20;99.90
36442;DHT22;73131;50.820;16.274;2024-03-02T08:00:39;13.50;99.90
36442;DHT22;73131;50.820;16.274;2024-03-02T08:03:41;13.50;99.90
36442;DHT22;73131;50.820;16.274;2024-03-02T08:06:51;13.60;99.90
36442;DHT22;73131;50.820;16.274;2024-03-02T08:09:52;13.40;99.90
36442;DHT22;73131;50.820;16.274;2024-03-02T08:12:53;13.10;99.90
36442;DHT22;73131;50.820;16.274;2024-03-02T08:15:57;12.80;99.90
36442;DHT22;73131;50.820;16.274;2024-03-02T08:19:00;12.60;99.90
36442;DHT22;73131;50.820;16.274;2024-03-02T08:22:01;12.40;99.90
36442;DHT22;73131;50.820;16.274;2024-03-02T08:25:03;12.30;99.90
36442;DHT22;73131;50.820;16.274;2024-03-02T08:28:04;12.60;99.90
36442;DHT22;73131;50.820;16.274;2024-03-02T08:31:05;13.00;99.90
36442;DHT22;73131;50.820;16.274;2024-03-02T08:34:09;13.30;99.90
36442;DHT22;73131;50.820;16.274;2024-03-02T08:37:15;13.30;99.90
36442;DHT22;73131;50.820;16.274;2024-03-02T08:40:18;13.20;99.90
36442;DHT22;73131;50.820;16.274;2024-03-02T08:43:20;13.40;99.90
36442;DHT22;73131;50.820;16.274;2024-03-02T08:46:21;14.70;99.90
36442;DHT22;73131;50.820;16.274;2024-03-02T08:49:24;15.20;99.90
36442;DHT22;73131;50.820;16.274;2024-03-02T08:52:27;15.40;99.90
36442;DHT22;73131;50.820;16.274;2024-03-02T08:55:28;16.10;99.90
36442;DHT22;73131;50.820;16.274;2024-03-02T08:58:29;16.00;99.90
36442;DHT22;73131;50.820;16.274;2024-03-02T09:01:30;16.90;99.90
36442;DHT22;73131;50.820;16.274;2024-03-02T09:04:31;17.90;99.90
36442;DHT22;73131;50.820;16.274;2024-03-02T09:07:34;17.80;99.90
36442;DHT22;73131;50.820;16.274;2024-03-02T09:10:39;17.80;99.90
36442;DHT22;73131;50.820;16.274;2024-03-02T09:13:42;17.60;99.90
36442;DHT22;73131;50.820;16.274;2024-03-02T09:16:46;16.80;99.90
36442;DHT22;73131;50.820;16.274;2024-03-02T09:19:49;16.60;99.90
36442;DHT22;73131;50.820;16.274;2024-03-02T09:22:53;15.60;99.90
36442;DHT22;73131;50.820;16.274;2024-03-02T09:25:54;15.20;99.90
36442;DHT22;73131;50.820;16.274;2024-03-02T09:28:55;15.00;99.90
36442;DHT22;73131;50.820;16.274;2024-03-02T09:31:56;14.80;99.90
36442;DHT22;73131;50.820;16.274;2024-03-02T09:34:57;14.30;99.90
36442;DHT22;73131;50.820;16.274;2024-03-02T09:37:59;14.00;99.90
36442;DHT22;73131;50.820;16.274;2024-03-02T09:41:01;14.20;99.90
36442;DHT22;73131;50.820;16.274;2024-03-02T09:44:05;14.10;99.90
36442;DHT22;73131;50.820;16.274;2024-03-02T09:47:07;14.30;99.90
36442;DHT22;73131;50.820;16.274;2024-03-02T09:50:11;14.50;99.90
36442;DHT22;73131;50.820;16.274;2024-03-02T09:53:14;14.60;99.90
36442;DHT22;73131;50.820;16.274;2024-03-02T09:56:17;14.50;99.90
36442;DHT22;73131;50.820;16.274;2024-03-02T09:59:22;14.60;99.90
36442;DHT22;73131;50.820;16.274;2024-03-02T10:02:27;14.50;99.90
36442;DHT22;73131;50.820;16.274;2024-03-02T10:05:29;14.70;99.90
36442;DHT22;73131;50.820;16.274;2024-03-02T10:08:42;14.80;99.90
36442;DHT22;73131;50.820;16.274;2024-03-02T10:11:44;14.80;99.90
36442;DHT22;73131;50.820;16.274;2024-03-02T10:14:47;14.60;99.90
36442;DHT22;73131;50.820;16.274;2024-03-02T10:17:51;14.50;99.90
36442;DHT22;73131;50.820;16.274;2024-03-02T10:20:52;14.60;99.90
36442;DHT22;73131;50.820;16.274;2024-03-02T10:23:53;14.70;99.90
36442;DHT22;73131;50.820;16.274;2024-03-02T10:27:25;14.90;99.90
36442;DHT22;73131;50.820;16.274;2024-03-02T10:30:28;14.80;99.90
36442;DHT22;73131;50.820;16.274;2024-03-02T10:33:29;14.80;99.90
36442;DHT22;73131;50.820;16.274;2024-03-02T10:36:32;14.80;99.90
36442;DHT22;73131;50.820;16.274;2024-03-02T10:39:35;14.90;99.90
36442;DHT22;73131;50.820;16.274;2024-03-02T10:42:41;15.00;99.90
36442;DHT22;73131;50.820;16.274;2024-03-02T10:45:43;15.40;99.90
36442;DHT22;73131;50.820;16.274;2024-03-02T10:48:46;15.70;99.90
36442;DHT22;73131;50.820;16.274;2024-03-02T10:51:48;15.90;99.90
36442;DHT22;73131;50.820;16.274;2024-03-02T10:54:49;15.80;99.90
36442;DHT22;73131;50.820;16.274;2024-03-02T10:57:56;15.70;99.90
36442;DHT22;73131;50.820;16.274;2024-03-02T11:01:02;15.70;99.90
36442;DHT22;73131;50.820;16.274;2024-03-02T11:04:04;15.70;99.90
36442;DHT22;73131;50.820;16.274;2024-03-02T11:07:09;15.70;99.90
36442;DHT22;73131;50.820;16.274;2024-03-02T11:10:11;15.60;99.90
36442;DHT22;73131;50.820;16.274;2024-03-02T11:13:13;15.20;99.90
36442;DHT22;73131;50.820;16.274;2024-03-02T11:16:35;15.10;99.90
36442;DHT22;73131;50.820;16.274;2024-03-02T11:19:40;15.00;99.90
36442;DHT22;73131;50.820;16.274;2024-03-02T11:22:41;15.00;99.90
36442;DHT22;73131;50.820;16.274;2024-03-02T11:25:45;15.10;99.90
36442;DHT22;73131;50.820;16.274;2024-03-02T11:28:48;15.20;99.90
36442;DHT22;73131;50.820;16.274;2024-03-02T11:31:58;15.40;99.90
36442;DHT22;73131;50.820;16.274;2024-03-02T11:35:02;15.50;99.90
36442;DHT22;73131;50.820;16.274;2024-03-02T11:38:04;15.80;99.90
36442;DHT22;73131;50.820;16.274;2024-03-02T11:41:18;15.60;99.90
36442;DHT22;73131;50.820;16.274;2024-03-02T11:44:35;15.70;99.90
36442;DHT22;73131;50.820;16.274;2024-03-02T11:47:42;15.60;99.90
36442;DHT22;73131;50.820;16.274;2024-03-02T11:50:50;15.40;99.90
36442;DHT22;73131;50.820;16.274;2024-03-02T11:53:54;15.40;99.90
36442;DHT22;73131;50.820;16.274;2024-03-02T11:57:14;15.40;99.90
36442;DHT22;73131;50.820;16.274;2024-03-02T12:00:21;15.50;99.90
36442;DHT22;73131;50.820;16.274;2024-03-02T12:03:25;15.50;99.90
36442;DHT22;73131;50.820;16.274;2024-03-02T12:06:26;15.30;99.90
36442;DHT22;73131;50.820;16.274;2024-03-02T12:09:32;15.10;99.90
36442;DHT22;73131;50.820;16.274;2024-03-02T12:12:33;15.10;99.90
36442;DHT22;73131;50.820;16.274;2024-03-02T12:15:39;15.00;99.90
36442;DHT22;73131;50.820;16.274;2024-03-02T12:18:42;14.80;99.90
36442;DHT22;73131;50.820;16.274;2024-03-02T12:21:47;14.80;99.90
36442;DHT22;73131;50.820;16.274;2024-03-02T12:24:48;14.80;99.90
36442;DHT22;73131;50.820;16.274;2024-03-02T12:27:58;14.80;99.90
36442;DHT22;73131;50.820;16.274;2024-03-02T12:31:00;14.70;99.90
36442;DHT22;73131;50.820;16.274;2024-03-02T12:34:04;14.70;99.90
36442;DHT22;73131;50.820;16.274;2024-03-02T12:37:05;14.70;99.90
36442;DHT22;73131;50.820;16.274;2024-03-02T12:40:07;14.70;99.90
36442;DHT22;73131;50.820;16.274;2024-03-02T12:43:10;14.60;99.90
36442;DHT22;73131;50.820;16.274;2024-03-02T12:46:12;14.50;99.90
36442;DHT22;73131;50.820;16.274;2024-03-02T12:49:14;14.40;99.90
36442;DHT22;73131;50.820;16.274;2024-03-02T12:52:18;14.30;99.90
36442;DHT22;73131;50.820;16.274;2024-03-02T12:55:20;14.20;99.90
36442;DHT22;73131;50.820;16.274;2024-03-02T12:58:25;14.20;99.90
36442;DHT22;73131;50.820;16.274;2024-03-02T13:01:34;14.30;99.90
36442;DHT22;73131;50.820;16.274;2024-03-02T13:04:38;14.40;99.90
36442;DHT22;73131;50.820;16.274;2024-03-02T13:07:39;14.50;99.90
36442;DHT22;73131;50.820;16.274;2024-03-02T13:10:41;14.60;99.90
36442;DHT22;73131;50.820;16.274;2024-03-02T13:13:42;14.60;99.90
36442;DHT22;73131;50.820;16.274;2024-03-02T13:16:45;14.40;99.90
36442;DHT22;73131;50.820;16.274;2024-03-02T13:20:00;14.20;99.90
36442;DHT22;73131;50.820;16.274;2024-03-02T13:23:01;14.10;99.90
36442;DHT22;73131;50.820;16.274;2024-03-02T13:26:06;14.10;99.90
36442;DHT22;73131;50.820;16.274;2024-03-02T13:29:09;14.00;99.90
36442;DHT22;73131;50.820;16.274;2024-03-02T13:32:10;14.00;99.90
36442;DHT22;73131;50.820;16.274;2024-03-02T13:35:11;14.00;99.90
36442;DHT22;73131;50.820;16.274;2024-03-02T13:38:12;14.10;99.90
36442;DHT22;73131;50.820;16.274;2024-03-02T13:41:15;14.10;99.90
36442;DHT22;73131;50.820;16.274;2024-03-02T13:44:24;14.70;99.90
36442;DHT22;73131;50.820;16.274;2024-03-02T13:47:25;14.10;99.90
36442;DHT22;73131;50.820;16.274;2024-03-02T13:50:26;14.00;99.90
36442;DHT22;73131;50.820;16.274;2024-03-02T13:53:27;14.00;99.90
36442;DHT22;73131;50.820;16.274;2024-03-02T13:56:29;13.90;99.90
36442;DHT22;73131;50.820;16.274;2024-03-02T13:59:30;13.90;99.90
36442;DHT22;73131;50.820;16.274;2024-03-02T14:02:31;14.00;99.90
36442;DHT22;73131;50.820;16.274;2024-03-02T14:05:35;13.90;99.90
36442;DHT22;73131;50.820;16.274;2024-03-02T14:08:38;13.90;99.90
36442;DHT22;73131;50.820;16.274;2024-03-02T14:11:39;13.80;99.90
36442;DHT22;73131;50.820;16.274;2024-03-02T14:14:40;13.80;99.90
36442;DHT22;73131;50.820;16.274;2024-03-02T14:17:44;13.90;99.90
36442;DHT22;73131;50.820;16.274;2024-03-02T14:20:47;13.90;99.90
36442;DHT22;73131;50.820;16.274;2024-03-02T14:23:53;14.00;99.90
36442;DHT22;73131;50.820;16.274;2024-03-02T14:26:56;14.00;99.90
36442;DHT22;73131;50.820;16.274;2024-03-02T14:30:06;14.00;99.90
36442;DHT22;73131;50.820;16.274;2024-03-02T14:33:10;14.10;99.90
36442;DHT22;73131;50.820;16.274;2024-03-02T14:36:17;14.00;99.90
36442;DHT22;73131;50.820;16.274;2024-03-02T14:39:20;14.10;99.90
36442;DHT22;73131;50.820;16.274;2024-03-02T14:42:26;14.10;99.90
36442;DHT22;73131;50.820;16.274;2024-03-02T14:45:31;14.10;99.90
36442;DHT22;73131;50.820;16.274;2024-03-02T14:48:32;14.10;99.90
36442;DHT22;73131;50.820;16.274;2024-03-02T14:51:33;14.10;99.90
36442;DHT22;73131;50.820;16.274;2024-03-02T14:54:34;14.00;99.90
36442;DHT22;73131;50.820;16.274;2024-03-02T14:57:36;14.00;99.90
36442;DHT22;73131;50.820;16.274;2024-03-02T15:00:39;13.90;99.90
36442;DHT22;73131;50.820;16.274;2024-03-02T15:03:40;13.90;99.90
36442;DHT22;73131;50.820;16.274;2024-03-02T15:06:44;13.90;99.90
36442;DHT22;73131;50.820;16.274;2024-03-02T15:09:45;13.90;99.90
36442;DHT22;73131;50.820;16.274;2024-03-02T15:12:46;13.80;99.90
36442;DHT22;73131;50.820;16.274;2024-03-02T15:15:52;13.70;99.90
36442;DHT22;73131;50.820;16.274;2024-03-02T15:18:53;13.60;99.90
36442;DHT22;73131;50.820;16.274;2024-03-02T15:21:57;13.30;99.90
36442;DHT22;73131;50.820;16.274;2024-03-02T15:25:00;13.20;99.90
36442;DHT22;73131;50.820;16.274;2024-03-02T15:28:01;13.10;99.90
36442;DHT22;73131;50.820;16.274;2024-03-02T15:31:05;13.00;99.90
36442;DHT22;73131;50.820;16.274;2024-03-02T15:34:07;13.00;99.90
36442;DHT22;73131;50.820;16.274;2024-03-02T15:37:12;13.00;99.90
36442;DHT22;73131;50.820;16.274;2024-03-02T15:40:15;12.60;99.90
36442;DHT22;73131;50.820;16.274;2024-03-02T15:43:18;12.90;99.90
36442;DHT22;73131;50.820;16.274;2024-03-02T15:46:19;12.80;99.90
36442;DHT22;73131;50.820;16.274;2024-03-02T15:49:22;12.80;99.90
36442;DHT22;73131;50.820;16.274;2024-03-02T15:52:24;12.70;99.90
36442;DHT22;73131;50.820;16.274;2024-03-02T15:55:25;12.70;99.90
36442;DHT22;73131;50.820;16.274;2024-03-02T15:58:26;12.70;99.90
36442;DHT22;73131;50.820;16.274;2024-03-02T16:01:27;12.70;99.90
36442;DHT22;73131;50.820;16.274;2024-03-02T16:04:28;12.60;99.90
36442;DHT22;73131;50.820;16.274;2024-03-02T16:07:29;12.60;99.90
36442;DHT22;73131;50.820;16.274;2024-03-02T16:10:30;12.50;99.90
36442;DHT22;73131;50.820;16.274;2024-03-02T16:13:31;12.50;99.90
36442;DHT22;73131;50.820;16.274;2024-03-02T16:16:32;12.50;99.90
36442;DHT22;73131;50.820;16.274;2024-03-02T16:19:34;12.50;99.90
36442;DHT22;73131;50.820;16.274;2024-03-02T16:22:37;12.40;99.90
36442;DHT22;73131;50.820;16.274;2024-03-02T16:25:41;12.30;99.90
36442;DHT22;73131;50.820;16.274;2024-03-02T16:28:44;12.30;99.90
36442;DHT22;73131;50.820;16.274;2024-03-02T16:31:45;12.20;99.90
36442;DHT22;73131;50.820;16.274;2024-03-02T16:34:46;12.10;99.90
36442;DHT22;73131;50.820;16.274;2024-03-02T16:37:47;12.00;99.90
36442;DHT22;73131;50.820;16.274;2024-03-02T16:40:48;11.90;99.90
36442;DHT22;73131;50.820;16.274;2024-03-02T16:43:49;11.90;99.90
36442;DHT22;73131;50.820;16.274;2024-03-02T16:46:50;11.80;99.90
36442;DHT22;73131;50.820;16.274;2024-03-02T16:49:52;11.80;99.90
36442;DHT22;73131;50.820;16.274;2024-03-02T16:52:55;11.80;99.90
36442;DHT22;73131;50.820;16.274;2024-03-02T16:56:00;11.70;99.90
36442;DHT22;73131;50.820;16.274;2024-03-02T16:59:01;11.70;99.90
36442;DHT22;73131;50.820;16.274;2024-03-02T17:02:04;11.60;99.90
36442;DHT22;73131;50.820;16.274;2024-03-02T17:05:08;11.60;99.90
36442;DHT22;73131;50.820;16.274;2024-03-02T17:08:09;11.60;99.90
36442;DHT22;73131;50.820;16.274;2024-03-02T17:11:10;11.60;99.90
36442;DHT22;73131;50.820;16.274;2024-03-02T17:14:14;11.60;99.90
36442;DHT22;73131;50.820;16.274;2024-03-02T17:17:17;11.50;99.90
36442;DHT22;73131;50.820;16.274;2024-03-02T17:20:21;11.50;99.90
36442;DHT22;73131;50.820;16.274;2024-03-02T17:23:22;11.50;99.90
36442;DHT22;73131;50.820;16.274;2024-03-02T17:26:25;11.50;99.90
36442;DHT22;73131;50.820;16.274;2024-03-02T17:29:26;11.40;99.90
36442;DHT22;73131;50.820;16.274;2024-03-02T17:32:30;11.40;99.90
36442;DHT22;73131;50.820;16.274;2024-03-02T17:35:32;11.30;99.90
36442;DHT22;73131;50.820;16.274;2024-03-02T17:38:36;11.20;99.90
36442;DHT22;73131;50.820;16.274;2024-03-02T17:41:37;11.10;99.90
36442;DHT22;73131;50.820;16.274;2024-03-02T17:44:42;11.00;99.90
36442;DHT22;73131;50.820;16.274;2024-03-02T17:47:43;10.90;99.90
36442;DHT22;73131;50.820;16.274;2024-03-02T17:50:47;10.80;99.90
36442;DHT22;73131;50.820;16.274;2024-03-02T17:53:48;10.80;99.90
36442;DHT22;73131;50.820;16.274;2024-03-02T17:56:50;10.80;99.90
36442;DHT22;73131;50.820;16.274;2024-03-02T17:59:53;10.70;99.90
36442;DHT22;73131;50.820;16.274;2024-03-02T18:02:59;10.70;99.90
36442;DHT22;73131;50.820;16.274;2024-03-02T18:06:03;10.70;99.90
36442;DHT22;73131;50.820;16.274;2024-03-02T18:09:05;10.70;99.90
36442;DHT22;73131;50.820;16.274;2024-03-02T18:12:07;10.60;99.90
36442;DHT22;73131;50.820;16.274;2024-03-02T18:15:09;10.60;99.90
36442;DHT22;73131;50.820;16.274;2024-03-02T18:18:13;10.50;99.90
36442;DHT22;73131;50.820;16.274;2024-03-02T18:21:16;10.50;99.90
36442;DHT22;73131;50.820;16.274;2024-03-02T18:24:17;10.40;99.90
36442;DHT22;73131;50.820;16.274;2024-03-02T18:27:26;10.40;99.90
36442;DHT22;73131;50.820;16.274;2024-03-02T18:30:27;10.30;99.90
36442;DHT22;73131;50.820;16.274;2024-03-02T18:33:28;10.30;99.90
36442;DHT22;73131;50.820;16.274;2024-03-02T18:36:29;10.30;99.90
36442;DHT22;73131;50.820;16.274;2024-03-02T18:39:33;10.30;99.90
36442;DHT22;73131;50.820;16.274;2024-03-02T18:42:35;10.30;99.90
36442;DHT22;73131;50.820;16.274;2024-03-02T18:45:39;10.30;99.90
36442;DHT22;73131;50.820;16.274;2024-03-02T18:48:40;10.30;99.90
36442;DHT22;73131;50.820;16.274;2024-03-02T18:51:44;10.30;99.90
36442;DHT22;73131;50.820;16.274;2024-03-02T18:54:45;10.20;99.90
36442;DHT22;73131;50.820;16.274;2024-03-02T18:57:47;10.30;99.90
36442;DHT22;73131;50.820;16.274;2024-03-02T19:00:48;10.30;99.90